createdAt,value
2023-05-08T00:02:25.412Z,9.73
2023-05-08T00:05:09.092Z,9.64
2023-05-08T00:07:52.389Z,9.64
2023-05-08T00:10:48.518Z,9.59
2023-05-08T00:13:34.925Z,9.60
2023-05-08T00:16:21.706Z,9.46
2023-05-08T00:19:04.066Z,9.45
2023-05-08T00:21:47.441Z,9.44
2023-05-08T00:24:33.827Z,9.51
2023-05-08T00:27:17.602Z,9.46
2023-05-08T00:30:01.924Z,9.48
2023-05-08T00:32:49.145Z,9.42
2023-05-08T00:35:29.915Z,9.49
2023-05-08T00:38:06.250Z,9.46
2023-05-08T00:40:46.532Z,9.63
2023-05-08T00:43:35.425Z,9.48
2023-05-08T00:46:19.681Z,9.34
2023-05-08T00:49:04.635Z,9.26
2023-05-08T00:51:43.428Z,9.23
2023-05-08T00:54:30.174Z,9.08
2023-05-08T00:57:11.916Z,9.09
2023-05-08T00:59:47.168Z,9.07
2023-05-08T01:02:23.067Z,9.00
2023-05-08T01:05:00.004Z,8.83
2023-05-08T01:07:45.827Z,8.83
2023-05-08T01:10:37.521Z,8.68
2023-05-08T01:13:33.004Z,8.65
2023-05-08T01:16:28.597Z,8.55
2023-05-08T01:19:43.652Z,8.50
2023-05-08T01:22:44.593Z,8.47
2023-05-08T01:25:34.950Z,8.49
2023-05-08T01:28:32.476Z,8.40
2023-05-08T01:31:46.774Z,8.25
2023-05-08T01:34:29.952Z,8.22
2023-05-08T01:37:14.235Z,8.38
2023-05-08T01:40:18.534Z,8.55
2023-05-08T01:43:15.372Z,8.53
2023-05-08T01:45:59.260Z,8.56
2023-05-08T01:48:50.973Z,8.57
2023-05-08T01:51:30.728Z,8.51
2023-05-08T01:54:18.290Z,8.53
2023-05-08T01:57:03.083Z,8.66
2023-05-08T01:59:51.346Z,8.68
2023-05-08T02:02:43.137Z,8.73
2023-05-08T02:05:24.217Z,8.74
2023-05-08T02:08:03.362Z,8.75
2023-05-08T02:10:39.385Z,8.74
2023-05-08T02:13:20.126Z,8.81
2023-05-08T02:16:02.054Z,8.86
2023-05-08T02:19:01.154Z,8.86
2023-05-08T02:21:56.384Z,8.95
2023-05-08T02:24:43.625Z,8.83
2023-05-08T02:27:30.896Z,8.81
2023-05-08T02:30:10.159Z,8.82
2023-05-08T02:32:53.294Z,8.94
2023-05-08T02:35:36.638Z,8.93
2023-05-08T02:38:18.281Z,8.95
2023-05-08T02:41:03.903Z,8.96
2023-05-08T02:43:52.913Z,8.83
2023-05-08T02:46:57.123Z,8.88
2023-05-08T02:49:49.280Z,8.82
2023-05-08T02:52:30.177Z,8.89
2023-05-08T02:55:15.225Z,8.84
2023-05-08T02:58:08.520Z,8.79
2023-05-08T03:01:23.542Z,8.75
2023-05-08T03:04:09.801Z,8.83
2023-05-08T03:06:59.376Z,8.84
2023-05-08T03:10:01.860Z,8.73
2023-05-08T03:12:42.804Z,8.79
2023-05-08T03:15:30.249Z,8.85
2023-05-08T03:18:30.136Z,8.82
2023-05-08T03:21:08.076Z,8.80
2023-05-08T03:23:53.945Z,8.99
2023-05-08T03:26:38.167Z,8.95
2023-05-08T03:29:24.180Z,8.95
2023-05-08T03:32:09.226Z,8.95
2023-05-08T03:34:54.053Z,9.10
2023-05-08T03:37:35.326Z,9.13
2023-05-08T03:40:16.792Z,9.13
2023-05-08T03:43:15.916Z,9.24
2023-05-08T03:45:54.765Z,9.23
2023-05-08T03:48:32.819Z,9.22
2023-05-08T03:51:06.412Z,9.21
2023-05-08T03:53:44.097Z,9.21
2023-05-08T03:56:17.608Z,9.22
2023-05-08T03:59:34.765Z,9.26
2023-05-08T04:03:05.264Z,9.31
2023-05-08T04:06:00.566Z,9.36
2023-05-08T04:08:49.102Z,9.53
2023-05-08T04:12:01.425Z,9.54
2023-05-08T04:15:06.519Z,9.41
2023-05-08T04:17:58.785Z,9.53
2023-05-08T04:20:46.257Z,9.64
2023-05-08T04:23:27.411Z,9.59
2023-05-08T04:26:39.753Z,9.71
2023-05-08T04:29:25.875Z,9.78
2023-05-08T04:32:13.698Z,9.81
2023-05-08T04:34:55.297Z,10.00
2023-05-08T04:37:40.045Z,10.11
2023-05-08T04:40:22.829Z,10.08
2023-05-08T04:43:02.239Z,10.13
2023-05-08T04:45:49.900Z,10.26
2023-05-08T04:48:28.257Z,10.31
2023-05-08T04:51:06.255Z,10.41
2023-05-08T04:53:44.198Z,10.32
2023-05-08T04:56:19.875Z,10.28
2023-05-08T04:59:01.574Z,10.58
2023-05-08T05:01:43.577Z,10.57
2023-05-08T05:04:21.838Z,10.73
2023-05-08T05:07:11.653Z,10.82
2023-05-08T05:10:01.601Z,10.70
2023-05-08T05:12:47.774Z,10.80
2023-05-08T05:15:23.762Z,10.89
2023-05-08T05:18:30.473Z,10.91
2023-05-08T05:21:16.374Z,10.73
2023-05-08T05:24:09.974Z,10.69
2023-05-08T05:26:57.503Z,10.62
2023-05-08T05:29:40.858Z,10.59
2023-05-08T05:32:26.673Z,10.73
2023-05-08T05:35:12.570Z,10.79
2023-05-08T05:37:53.138Z,10.84
2023-05-08T05:40:37.241Z,11.02
2023-05-08T05:43:25.733Z,10.96
2023-05-08T05:46:15.451Z,11.03
2023-05-08T05:49:03.633Z,11.16
2023-05-08T05:51:53.519Z,11.41
2023-05-08T05:54:46.613Z,11.61
2023-05-08T05:57:32.027Z,11.61
2023-05-08T06:00:22.479Z,11.55
2023-05-08T06:03:23.335Z,11.92
2023-05-08T06:06:07.178Z,11.97
2023-05-08T06:08:41.756Z,12.13
2023-05-08T06:11:50.921Z,12.40
2023-05-08T06:14:38.124Z,12.61
2023-05-08T06:17:25.199Z,12.59
2023-05-08T06:20:14.307Z,12.99
2023-05-08T06:23:06.040Z,12.75
2023-05-08T06:25:49.740Z,12.93
2023-05-08T06:28:31.774Z,12.97
2023-05-08T06:31:20.996Z,13.28
2023-05-08T06:34:14.586Z,14.11
2023-05-08T06:36:57.731Z,14.08
2023-05-08T06:40:03.932Z,14.14
2023-05-08T06:42:59.537Z,14.95
2023-05-08T06:45:59.179Z,14.57
2023-05-08T06:48:49.179Z,14.49
2023-05-08T06:51:45.920Z,14.71
2023-05-08T06:54:37.696Z,15.50
2023-05-08T06:57:31.625Z,16.09
2023-05-08T07:00:15.828Z,16.30
2023-05-08T07:03:01.420Z,16.45
2023-05-08T07:05:39.111Z,15.74
2023-05-08T07:08:23.028Z,16.25
2023-05-08T07:11:02.242Z,16.62
2023-05-08T07:13:46.364Z,16.77
2023-05-08T07:16:25.786Z,17.44
2023-05-08T07:19:09.068Z,17.69
2023-05-08T07:22:05.581Z,17.10
2023-05-08T07:24:59.626Z,17.26
2023-05-08T07:27:55.726Z,16.87
2023-05-08T07:30:45.030Z,17.10
2023-05-08T07:33:29.152Z,17.18
2023-05-08T07:36:04.854Z,17.26
2023-05-08T07:38:42.994Z,17.21
2023-05-08T07:41:18.289Z,17.44
2023-05-08T07:44:02.103Z,17.14
2023-05-08T07:46:45.935Z,17.31
2023-05-08T07:49:36.371Z,17.35
2023-05-08T07:52:50.823Z,17.31
2023-05-08T07:55:39.757Z,17.20
2023-05-08T07:58:28.720Z,16.95
2023-05-08T08:01:19.007Z,17.24
2023-05-08T08:03:58.148Z,17.88
2023-05-08T08:06:43.899Z,18.12
2023-05-08T08:09:24.653Z,17.81
2023-05-08T08:12:15.810Z,18.12
2023-05-08T08:14:54.796Z,18.16
2023-05-08T08:17:43.265Z,18.30
2023-05-08T08:20:45.173Z,18.38
2023-05-08T08:23:30.186Z,18.56
2023-05-08T08:26:14.817Z,18.23
2023-05-08T08:29:00.607Z,18.33
2023-05-08T08:31:52.417Z,18.56
2023-05-08T08:34:46.336Z,19.03
2023-05-08T08:37:52.974Z,18.65
2023-05-08T08:40:35.000Z,19.04
2023-05-08T08:43:26.090Z,18.46
2023-05-08T08:46:09.804Z,18.49
2023-05-08T08:48:56.223Z,18.58
2023-05-08T08:51:47.047Z,18.70
2023-05-08T08:54:45.075Z,19.07
2023-05-08T08:57:24.931Z,19.18
2023-05-08T09:00:20.987Z,19.11
2023-05-08T09:02:58.647Z,19.53
2023-05-08T09:05:32.564Z,19.61
2023-05-08T09:08:12.869Z,19.87
2023-05-08T09:11:00.579Z,19.42
2023-05-08T09:13:40.897Z,19.02
2023-05-08T09:16:21.711Z,18.95
2023-05-08T09:18:59.419Z,18.92
2023-05-08T09:21:43.209Z,19.31
2023-05-08T09:24:23.694Z,19.05
2023-05-08T09:27:25.608Z,19.05
2023-05-08T09:30:07.057Z,18.92
2023-05-08T09:32:50.686Z,19.29
2023-05-08T09:35:47.949Z,19.62
2023-05-08T09:38:40.809Z,19.76
2023-05-08T09:41:32.189Z,19.96
2023-05-08T09:44:25.868Z,19.64
2023-05-08T09:47:22.232Z,19.78
2023-05-08T09:50:19.074Z,20.53
2023-05-08T09:52:54.493Z,20.49
2023-05-08T09:55:49.335Z,20.47
2023-05-08T09:58:26.982Z,20.14
2023-05-08T10:01:13.794Z,19.93
2023-05-08T10:04:06.938Z,19.50
2023-05-08T10:06:59.043Z,19.85
2023-05-08T10:09:50.345Z,20.17
2023-05-08T10:12:38.985Z,20.37
2023-05-08T10:15:21.053Z,20.36
2023-05-08T10:18:12.389Z,20.14
2023-05-08T10:21:00.743Z,19.89
2023-05-08T10:23:46.501Z,19.74
2023-05-08T10:26:32.093Z,20.11
2023-05-08T10:29:29.173Z,20.23
2023-05-08T10:32:17.086Z,20.46
2023-05-08T10:34:59.949Z,20.70
2023-05-08T10:37:47.381Z,20.76
2023-05-08T10:40:18.836Z,20.37
2023-05-08T10:42:56.113Z,20.86
2023-05-08T10:45:30.204Z,20.85
2023-05-08T10:48:41.160Z,20.81
2023-05-08T10:51:28.059Z,21.06
2023-05-08T10:54:37.326Z,21.00
2023-05-08T10:57:24.352Z,20.69
2023-05-08T11:00:05.887Z,20.86
2023-05-08T11:02:43.777Z,21.23
2023-05-08T11:05:28.762Z,20.77
2023-05-08T11:08:23.407Z,20.58
2023-05-08T11:11:17.772Z,20.80
2023-05-08T11:13:54.682Z,20.41
2023-05-08T11:17:01.285Z,21.30
2023-05-08T11:19:38.765Z,21.71
2023-05-08T11:22:24.947Z,21.48
2023-05-08T11:25:14.250Z,21.10
2023-05-08T11:28:22.022Z,21.44
2023-05-08T11:31:04.669Z,21.30
2023-05-08T11:33:46.200Z,20.91
2023-05-08T11:36:23.165Z,20.92
2023-05-08T11:39:16.445Z,21.51
2023-05-08T11:42:14.820Z,21.37
2023-05-08T11:45:13.741Z,20.79
2023-05-08T11:48:03.878Z,21.09
2023-05-08T11:50:48.337Z,20.55
2023-05-08T11:53:34.667Z,20.72
2023-05-08T11:56:18.342Z,21.20
2023-05-08T11:59:21.591Z,21.63
2023-05-08T12:04:54.752Z,21.72
2023-05-08T12:07:58.758Z,21.88
2023-05-08T12:10:59.450Z,21.64
2023-05-08T12:13:38.261Z,21.21
2023-05-08T12:16:22.035Z,21.86
2023-05-08T12:19:08.512Z,22.05
2023-05-08T12:21:42.273Z,21.57
2023-05-08T12:24:24.469Z,21.61
2023-05-08T12:27:05.003Z,21.57
2023-05-08T12:29:45.353Z,21.61
2023-05-08T12:32:29.275Z,21.56
2023-05-08T12:35:05.073Z,21.92
2023-05-08T12:37:49.826Z,21.84
2023-05-08T12:40:35.731Z,22.11
2023-05-08T12:43:37.051Z,21.68
2023-05-08T12:46:23.017Z,21.84
2023-05-08T12:49:18.819Z,22.20
2023-05-08T12:52:04.005Z,22.37
2023-05-08T12:54:49.509Z,21.75
2023-05-08T12:57:33.229Z,21.54
2023-05-08T13:00:09.238Z,21.65
2023-05-08T13:02:59.710Z,21.59
2023-05-08T13:05:50.514Z,21.81
2023-05-08T13:08:39.324Z,21.23
2023-05-08T13:11:29.026Z,21.60
2023-05-08T13:14:09.713Z,21.67
2023-05-08T13:17:03.194Z,21.65
2023-05-08T13:19:51.044Z,21.65
2023-05-08T13:22:31.875Z,21.54
2023-05-08T13:25:14.203Z,21.59
2023-05-08T13:27:46.359Z,21.78
2023-05-08T13:30:38.414Z,21.22
2023-05-08T13:33:11.528Z,21.75
2023-05-08T13:35:55.336Z,22.10
2023-05-08T13:38:37.033Z,21.57
2023-05-08T13:41:21.203Z,21.01
2023-05-08T13:44:10.483Z,21.41
2023-05-08T13:46:52.165Z,21.70
2023-05-08T13:49:47.044Z,21.86
2023-05-08T13:52:35.460Z,22.03
2023-05-08T13:55:23.403Z,21.45
2023-05-08T13:58:07.942Z,21.38
2023-05-08T14:01:13.812Z,21.89
2023-05-08T14:03:55.209Z,21.84
2023-05-08T14:06:33.154Z,21.68
2023-05-08T14:09:10.938Z,21.84
2023-05-08T14:12:00.183Z,21.89
2023-05-08T14:14:48.064Z,21.63
2023-05-08T14:17:29.156Z,21.75
2023-05-08T14:20:12.059Z,21.25
2023-05-08T14:23:02.506Z,21.80
2023-05-08T14:25:40.330Z,21.46
2023-05-08T14:28:34.016Z,21.56
2023-05-08T14:31:20.895Z,21.21
2023-05-08T14:34:05.245Z,21.48
2023-05-08T14:36:48.268Z,21.80
2023-05-08T14:39:30.020Z,22.30
2023-05-08T14:45:01.172Z,22.70
2023-05-08T14:47:45.731Z,22.56
2023-05-08T14:50:31.026Z,22.09
2023-05-08T14:53:15.261Z,21.48
2023-05-08T14:56:01.700Z,21.51
2023-05-08T14:58:54.321Z,21.49
2023-05-08T15:01:30.012Z,21.96
2023-05-08T15:04:07.426Z,21.93
2023-05-08T15:06:51.236Z,21.45
2023-05-08T15:09:26.767Z,21.32
2023-05-08T15:12:15.473Z,20.47
2023-05-08T15:14:58.405Z,20.89
2023-05-08T15:17:46.875Z,21.55
2023-05-08T15:20:30.596Z,21.05
2023-05-08T15:23:06.175Z,21.61
2023-05-08T15:25:56.608Z,21.41
2023-05-08T15:31:50.039Z,21.56
2023-05-08T15:34:47.539Z,21.32
2023-05-08T15:37:34.685Z,20.79
2023-05-08T15:40:36.458Z,20.89
2023-05-08T15:43:28.156Z,21.18
2023-05-08T15:46:23.647Z,21.43
2023-05-08T15:49:11.700Z,21.08
2023-05-08T15:52:14.820Z,20.58
2023-05-08T15:55:09.697Z,21.00
2023-05-08T15:58:01.261Z,21.78
2023-05-08T16:00:54.126Z,22.17
2023-05-08T16:03:49.583Z,22.80
2023-05-08T16:06:35.553Z,21.67
2023-05-08T16:10:15.675Z,22.51
2023-05-08T16:12:56.897Z,22.60
2023-05-08T16:15:45.130Z,23.88
2023-05-08T16:18:31.137Z,24.33
2023-05-08T16:21:40.070Z,24.26
2023-05-08T16:27:21.538Z,24.58
2023-05-08T16:30:02.811Z,23.47
2023-05-08T16:32:49.119Z,23.79
2023-05-08T16:35:30.212Z,23.75
2023-05-08T16:38:10.393Z,23.38
2023-05-08T16:40:57.069Z,22.82
2023-05-08T16:43:34.496Z,21.79
2023-05-08T16:46:39.045Z,21.65
2023-05-08T16:49:38.822Z,20.23
2023-05-08T16:52:25.919Z,20.72
2023-05-08T16:55:13.709Z,20.06
2023-05-08T16:57:54.054Z,19.74
2023-05-08T17:00:42.482Z,18.90
2023-05-08T17:03:15.798Z,18.37
2023-05-08T17:05:55.768Z,17.77
2023-05-08T17:08:50.800Z,17.07
2023-05-08T17:11:37.850Z,16.30
2023-05-08T17:14:18.633Z,16.34
2023-05-08T17:17:04.914Z,16.04
2023-05-08T17:19:35.010Z,16.32
2023-05-08T17:22:26.266Z,16.77
2023-05-08T17:25:10.065Z,16.70
2023-05-08T17:27:56.040Z,16.26
2023-05-08T17:30:36.930Z,15.85
2023-05-08T17:33:17.544Z,15.69
2023-05-08T17:35:53.199Z,15.15
2023-05-08T17:38:36.451Z,15.01
2023-05-08T17:41:17.391Z,14.82
2023-05-08T17:43:54.172Z,14.59
2023-05-08T17:46:26.834Z,14.54
2023-05-08T17:49:05.380Z,14.30
2023-05-08T17:51:59.080Z,14.10
2023-05-08T17:55:00.479Z,14.08
2023-05-08T17:57:44.717Z,13.66
2023-05-08T18:00:30.128Z,13.46
2023-05-08T18:03:12.366Z,13.36
2023-05-08T18:05:55.010Z,13.37
2023-05-08T18:08:43.068Z,13.28
2023-05-08T18:11:47.114Z,13.18
2023-05-08T18:14:32.080Z,13.10
2023-05-08T18:17:33.504Z,13.06
2023-05-08T18:20:13.534Z,13.05
2023-05-08T18:22:55.225Z,12.93
2023-05-08T18:25:44.672Z,12.69
2023-05-08T18:28:22.463Z,12.60
2023-05-08T18:31:08.843Z,12.47
2023-05-08T18:33:59.448Z,12.33
2023-05-08T18:36:53.214Z,12.33
2023-05-08T18:39:43.352Z,12.34
2023-05-08T18:42:30.630Z,12.28
2023-05-08T18:45:37.429Z,12.11
2023-05-08T18:48:16.967Z,11.72
2023-05-08T18:50:58.798Z,11.70
2023-05-08T18:53:44.632Z,11.95
2023-05-08T18:56:25.737Z,11.76
2023-05-08T18:59:14.551Z,11.69
2023-05-08T19:02:15.290Z,11.74
2023-05-08T19:04:56.808Z,11.68
2023-05-08T19:07:35.029Z,11.60
2023-05-08T19:10:17.006Z,11.60
2023-05-08T19:13:04.116Z,11.67
2023-05-08T19:15:40.059Z,11.40
2023-05-08T19:18:31.685Z,11.46
2023-05-08T19:21:09.661Z,11.37
2023-05-08T19:24:04.192Z,11.32
2023-05-08T19:26:42.532Z,11.16
2023-05-08T19:29:39.713Z,11.01
2023-05-08T19:32:24.010Z,11.10
2023-05-08T19:35:15.204Z,11.08
2023-05-08T19:37:58.401Z,10.99
2023-05-08T19:40:55.738Z,10.93
2023-05-08T19:43:43.310Z,10.96
2023-05-08T19:46:21.517Z,10.76
2023-05-08T19:49:04.615Z,10.72
2023-05-08T19:51:50.107Z,10.82
2023-05-08T19:54:32.085Z,10.81
2023-05-08T19:57:25.043Z,10.80
2023-05-08T20:00:03.324Z,10.72
2023-05-08T20:02:48.066Z,10.56
2023-05-08T20:05:35.453Z,10.47
2023-05-08T20:08:36.856Z,10.45
2023-05-08T20:11:07.880Z,10.36
2023-05-08T20:13:58.929Z,10.31
2023-05-08T20:16:34.402Z,10.22
2023-05-08T20:19:17.763Z,10.16
2023-05-08T20:22:08.055Z,10.10
2023-05-08T20:24:48.975Z,10.03
2023-05-08T20:27:33.888Z,10.00
2023-05-08T20:30:20.948Z,10.06
2023-05-08T20:33:12.669Z,10.07
2023-05-08T20:35:57.800Z,10.23
2023-05-08T20:38:39.798Z,10.26
2023-05-08T20:41:25.408Z,10.25
2023-05-08T20:44:12.523Z,10.12
2023-05-08T20:46:51.172Z,10.02
2023-05-08T20:49:37.528Z,10.22
2023-05-08T20:52:31.977Z,10.20
2023-05-08T20:55:10.129Z,10.34
2023-05-08T20:58:03.073Z,10.39
2023-05-08T21:00:47.371Z,10.39
2023-05-08T21:03:32.268Z,10.37
2023-05-08T21:06:15.170Z,10.37
2023-05-08T21:08:52.216Z,10.38
2023-05-08T21:11:30.276Z,10.36
2023-05-08T21:14:11.153Z,10.25
2023-05-08T21:16:56.876Z,10.39
2023-05-08T21:19:45.682Z,10.29
2023-05-08T21:22:26.171Z,10.33
2023-05-08T21:25:03.867Z,10.35
2023-05-08T21:28:16.161Z,10.26
2023-05-08T21:31:02.714Z,10.30
2023-05-08T21:33:46.996Z,10.06
2023-05-08T21:36:34.159Z,10.08
2023-05-08T21:39:09.853Z,9.98
2023-05-08T21:41:51.154Z,9.86
2023-05-08T21:44:46.012Z,9.97
2023-05-08T21:47:37.672Z,9.99
2023-05-08T21:50:22.441Z,9.97
2023-05-08T21:53:02.695Z,9.93
2023-05-08T21:55:43.357Z,9.82
2023-05-08T21:58:22.808Z,9.62
2023-05-08T22:01:03.458Z,9.75
2023-05-08T22:03:41.838Z,9.73
2023-05-08T22:06:22.848Z,9.59
2023-05-08T22:09:12.277Z,9.63
2023-05-08T22:12:08.749Z,9.51
2023-05-08T22:14:43.586Z,9.60
2023-05-08T22:17:25.144Z,9.47
2023-05-08T22:20:09.194Z,9.50
2023-05-08T22:22:50.349Z,9.57
2023-05-08T22:25:29.151Z,9.56
2023-05-08T22:28:06.820Z,9.49
2023-05-08T22:30:49.679Z,9.49
2023-05-08T22:33:36.791Z,9.48
2023-05-08T22:36:14.634Z,9.42
2023-05-08T22:38:55.306Z,9.34
2023-05-08T22:41:37.307Z,9.33
2023-05-08T22:44:07.522Z,9.30
2023-05-08T22:46:46.066Z,9.21
2023-05-08T22:49:24.157Z,9.15
2023-05-08T22:52:10.473Z,8.96
2023-05-08T22:54:52.295Z,8.99
2023-05-08T22:57:30.432Z,9.00
2023-05-08T23:00:17.626Z,8.95
2023-05-08T23:03:01.088Z,8.84
2023-05-08T23:05:47.192Z,8.71
2023-05-08T23:08:27.332Z,8.63
2023-05-08T23:11:13.462Z,8.53
2023-05-08T23:13:48.678Z,8.53
2023-05-08T23:16:32.301Z,8.55
2023-05-08T23:19:10.043Z,8.46
2023-05-08T23:21:55.748Z,8.39
2023-05-08T23:24:51.085Z,8.46
2023-05-08T23:27:31.896Z,8.36
2023-05-08T23:30:17.971Z,8.36
2023-05-08T23:32:50.636Z,8.33
2023-05-08T23:35:38.227Z,8.43
2023-05-08T23:38:24.475Z,8.33
2023-05-08T23:41:08.233Z,8.31
2023-05-08T23:43:46.518Z,8.30
2023-05-08T23:46:21.741Z,8.18
2023-05-08T23:49:01.926Z,8.26
2023-05-08T23:51:43.086Z,8.28
2023-05-08T23:54:25.800Z,8.23
2023-05-08T23:57:06.523Z,8.08
2023-05-08T23:59:47.380Z,8.00
